sensor_id;sensor_type;location;lat;lon;timestamp;pressure;altitude;pressure_sealevel;temperature;humidity
24962;BME280;12992;50.884;13.668;2024-02-28T00:01:04;97365.22;;;4.45;100.00
24962;BME280;12992;50.884;13.668;2024-02-28T00:03:29;97362.56;;;4.32;100.00
24962;BME280;12992;50.884;13.668;2024-02-28T00:05:57;97358.25;;;4.24;100.00
24962;BME280;12992;50.884;13.668;2024-02-28T00:08:22;97363.25;;;4.20;100.00
24962;BME280;12992;50.884;13.668;2024-02-28T00:10:47;97380.16;;;4.41;100.00
24962;BME280;12992;50.884;13.668;2024-02-28T00:13:14;97373.34;;;4.32;100.00
24962;BME280;12992;50.884;13.668;2024-02-28T00:15:40;97376.03;;;4.32;100.00
24962;BME280;12992;50.884;13.668;2024-02-28T00:18:06;97381.50;;;4.18;100.00
24962;BME280;12992;50.884;13.668;2024-02-28T00:20:31;97381.91;;;4.22;100.00
24962;BME280;12992;50.884;13.668;2024-02-28T00:22:56;97393.09;;;4.25;100.00
24962;BME280;12992;50.884;13.668;2024-02-28T00:25:22;97397.03;;;4.23;100.00
24962;BME280;12992;50.884;13.668;2024-02-28T00:27:47;97395.38;;;4.22;100.00
24962;BME280;12992;50.884;13.668;2024-02-28T00:30:13;97386.44;;;4.28;100.00
24962;BME280;12992;50.884;13.668;2024-02-28T00:32:38;97392.06;;;4.26;100.00
24962;BME280;12992;50.884;13.668;2024-02-28T00:35:04;97400.97;;;4.20;100.00
24962;BME280;12992;50.884;13.668;2024-02-28T00:37:30;97391.03;;;4.21;100.00
24962;BME280;12992;50.884;13.668;2024-02-28T00:39:55;97394.75;;;4.20;100.00
24962;BME280;12992;50.884;13.668;2024-02-28T00:42:21;97408.25;;;4.20;100.00
24962;BME280;12992;50.884;13.668;2024-02-28T00:44:46;97396.03;;;4.17;100.00
24962;BME280;12992;50.884;13.668;2024-02-28T00:47:12;97396.03;;;4.17;100.00
24962;BME280;12992;50.884;13.668;2024-02-28T00:49:37;97400.38;;;4.18;100.00
24962;BME280;12992;50.884;13.668;2024-02-28T00:52:03;97407.03;;;4.09;100.00
24962;BME280;12992;50.884;13.668;2024-02-28T00:54:28;97400.22;;;4.07;100.00
24962;BME280;12992;50.884;13.668;2024-02-28T00:56:53;97407.44;;;4.06;100.00
24962;BME280;12992;50.884;13.668;2024-02-28T00:59:19;97401.44;;;4.04;100.00
24962;BME280;12992;50.884;13.668;2024-02-28T01:01:44;97400.63;;;4.04;100.00
24962;BME280;12992;50.884;13.668;2024-02-28T01:04:09;97390.03;;;4.09;100.00
24962;BME280;12992;50.884;13.668;2024-02-28T01:06:35;97392.31;;;4.12;100.00
24962;BME280;12992;50.884;13.668;2024-02-28T01:09:00;97388.16;;;4.16;100.00
24962;BME280;12992;50.884;13.668;2024-02-28T01:11:25;97387.72;;;4.25;100.00
24962;BME280;12992;50.884;13.668;2024-02-28T01:13:51;97389.34;;;4.26;100.00
24962;BME280;12992;50.884;13.668;2024-02-28T01:16:16;97383.16;;;4.19;100.00
24962;BME280;12992;50.884;13.668;2024-02-28T01:18:42;97390.19;;;4.20;100.00
24962;BME280;12992;50.884;13.668;2024-02-28T01:21:07;97393.28;;;4.24;100.00
24962;BME280;12992;50.884;13.668;2024-02-28T01:23:32;97396.84;;;4.24;100.00
24962;BME280;12992;50.884;13.668;2024-02-28T01:25:58;97393.13;;;4.12;100.00
24962;BME280;12992;50.884;13.668;2024-02-28T01:28:23;97392.72;;;4.15;100.00
24962;BME280;12992;50.884;13.668;2024-02-28T01:30:49;97393.75;;;4.14;100.00
24962;BME280;12992;50.884;13.668;2024-02-28T01:33:14;97387.72;;;4.19;100.00
24962;BME280;12992;50.884;13.668;2024-02-28T01:35:39;97395.16;;;4.23;100.00
24962;BME280;12992;50.884;13.668;2024-02-28T01:38:05;97393.91;;;4.26;100.00
24962;BME280;12992;50.884;13.668;2024-02-28T01:40:30;97392.41;;;4.37;100.00
24962;BME280;12992;50.884;13.668;2024-02-28T01:43:02;97381.25;;;4.33;100.00
24962;BME280;12992;50.884;13.668;2024-02-28T01:45:28;97384.31;;;4.37;100.00
24962;BME280;12992;50.884;13.668;2024-02-28T01:47:53;97383.06;;;4.39;100.00
24962;BME280;12992;50.884;13.668;2024-02-28T01:50:19;97363.84;;;4.29;100.00
24962;BME280;12992;50.884;13.668;2024-02-28T01:52:44;97374.75;;;4.41;100.00
24962;BME280;12992;50.884;13.668;2024-02-28T01:55:09;97371.06;;;4.35;100.00
24962;BME280;12992;50.884;13.668;2024-02-28T01:57:36;97373.78;;;4.29;100.00
24962;BME280;12992;50.884;13.668;2024-02-28T02:00:02;97370.25;;;4.35;100.00
24962;BME280;12992;50.884;13.668;2024-02-28T02:02:29;97373.34;;;4.32;100.00
24962;BME280;12992;50.884;13.668;2024-02-28T02:04:55;97377.06;;;4.37;100.00
24962;BME280;12992;50.884;13.668;2024-02-28T02:07:23;97365.69;;;4.35;100.00
24962;BME280;12992;50.884;13.668;2024-02-28T02:09:48;97373.06;;;4.46;100.00
24962;BME280;12992;50.884;13.668;2024-02-28T02:12:14;97366.13;;;4.25;100.00
24962;BME280;12992;50.884;13.668;2024-02-28T02:14:40;97360.53;;;4.27;100.00
24962;BME280;12992;50.884;13.668;2024-02-28T02:17:05;97359.25;;;4.30;100.00
24962;BME280;12992;50.884;13.668;2024-02-28T02:19:30;97365.25;;;4.32;100.00
24962;BME280;12992;50.884;13.668;2024-02-28T02:22:00;97362.19;;;4.28;100.00
24962;BME280;12992;50.884;13.668;2024-02-28T02:24:30;97368.38;;;4.35;100.00
24962;BME280;12992;50.884;13.668;2024-02-28T02:26:57;97360.75;;;4.25;100.00
24962;BME280;12992;50.884;13.668;2024-02-28T02:29:23;97364.66;;;4.30;100.00
24962;BME280;12992;50.884;13.668;2024-02-28T02:31:48;97356.53;;;4.36;100.00
24962;BME280;12992;50.884;13.668;2024-02-28T02:34:13;97362.41;;;4.26;100.00
24962;BME280;12992;50.884;13.668;2024-02-28T02:36:39;97367.75;;;4.33;100.00
24962;BME280;12992;50.884;13.668;2024-02-28T02:39:04;97376.25;;;4.37;100.00
24962;BME280;12992;50.884;13.668;2024-02-28T02:41:29;97373.97;;;4.34;100.00
24962;BME280;12992;50.884;13.668;2024-02-28T02:43:55;97368.19;;;4.30;100.00
24962;BME280;12992;50.884;13.668;2024-02-28T02:46:20;97369.75;;;4.51;100.00
24962;BME280;12992;50.884;13.668;2024-02-28T02:48:45;97365.22;;;4.45;100.00
24962;BME280;12992;50.884;13.668;2024-02-28T02:51:11;97367.47;;;4.48;100.00
24962;BME280;12992;50.884;13.668;2024-02-28T02:53:36;97362.94;;;4.42;100.00
24962;BME280;12992;50.884;13.668;2024-02-28T02:56:05;97375.81;;;4.40;100.00
24962;BME280;12992;50.884;13.668;2024-02-28T02:58:30;97361.50;;;4.39;100.00
24962;BME280;12992;50.884;13.668;2024-02-28T03:00:55;97369.34;;;4.47;100.00
24962;BME280;12992;50.884;13.668;2024-02-28T03:03:21;97374.25;;;4.57;100.00
24962;BME280;12992;50.884;13.668;2024-02-28T03:05:46;97370.25;;;4.35;100.00
24962;BME280;12992;50.884;13.668;2024-02-28T03:08:11;97379.75;;;4.37;100.00
24962;BME280;12992;50.884;13.668;2024-02-28T03:10:37;97378.34;;;4.35;100.00
24962;BME280;12992;50.884;13.668;2024-02-28T03:13:02;97377.50;;;4.34;100.00
24962;BME280;12992;50.884;13.668;2024-02-28T03:15:28;97380.00;;;4.29;100.00
24962;BME280;12992;50.884;13.668;2024-02-28T03:17:53;97389.28;;;4.40;100.00
24962;BME280;12992;50.884;13.668;2024-02-28T03:20:18;97391.13;;;4.46;100.00
24962;BME280;12992;50.884;13.668;2024-02-28T03:22:44;97389.69;;;4.43;100.00
24962;BME280;12992;50.884;13.668;2024-02-28T03:25:09;97401.53;;;4.42;100.00
24962;BME280;12992;50.884;13.668;2024-02-28T03:27:34;97400.88;;;4.47;100.00
24962;BME280;12992;50.884;13.668;2024-02-28T03:30:00;97403.41;;;4.42;100.00
24962;BME280;12992;50.884;13.668;2024-02-28T03:32:25;97400.75;;;4.29;100.00
24962;BME280;12992;50.884;13.668;2024-02-28T03:34:50;97410.69;;;4.35;100.00
24962;BME280;12992;50.884;13.668;2024-02-28T03:37:16;97408.00;;;4.28;100.00
24962;BME280;12992;50.884;13.668;2024-02-28T03:39:41;97401.38;;;4.24;100.00
24962;BME280;12992;50.884;13.668;2024-02-28T03:42:06;97412.16;;;4.24;100.00
24962;BME280;12992;50.884;13.668;2024-02-28T03:44:32;97415.25;;;4.34;100.00
24962;BME280;12992;50.884;13.668;2024-02-28T03:46:57;97424.78;;;4.37;100.00
24962;BME280;12992;50.884;13.668;2024-02-28T03:49:22;97424.56;;;4.38;100.00
24962;BME280;12992;50.884;13.668;2024-02-28T03:51:48;97427.66;;;4.42;100.00
24962;BME280;12992;50.884;13.668;2024-02-28T03:54:13;97434.06;;;4.41;100.00
24962;BME280;12992;50.884;13.668;2024-02-28T03:56:38;97436.59;;;4.36;100.00
24962;BME280;12992;50.884;13.668;2024-02-28T03:59:04;97442.47;;;4.19;100.00
24962;BME280;12992;50.884;13.668;2024-02-28T04:01:30;97441.88;;;4.11;100.00
24962;BME280;12992;50.884;13.668;2024-02-28T04:03:55;97443.69;;;4.23;100.00
24962;BME280;12992;50.884;13.668;2024-02-28T04:06:20;97454.66;;;4.29;100.00
24962;BME280;12992;50.884;13.668;2024-02-28T04:08:46;97456.53;;;4.28;100.00
24962;BME280;12992;50.884;13.668;2024-02-28T04:11:11;97463.41;;;4.17;100.00
24962;BME280;12992;50.884;13.668;2024-02-28T04:13:36;97466.09;;;4.17;100.00
24962;BME280;12992;50.884;13.668;2024-02-28T04:16:02;97478.97;;;4.15;100.00
24962;BME280;12992;50.884;13.668;2024-02-28T04:18:30;97481.25;;;4.18;100.00
24962;BME280;12992;50.884;13.668;2024-02-28T04:20:56;97481.25;;;4.18;100.00
24962;BME280;12992;50.884;13.668;2024-02-28T04:23:21;97487.84;;;4.22;100.00
24962;BME280;12992;50.884;13.668;2024-02-28T04:25:46;97479.00;;;4.02;100.00
24962;BME280;12992;50.884;13.668;2024-02-28T04:28:12;97489.34;;;4.05;100.00
24962;BME280;12992;50.884;13.668;2024-02-28T04:30:37;97498.47;;;4.04;100.00
24962;BME280;12992;50.884;13.668;2024-02-28T04:33:02;97500.94;;;4.12;100.00
24962;BME280;12992;50.884;13.668;2024-02-28T04:35:28;97505.72;;;4.04;100.00
24962;BME280;12992;50.884;13.668;2024-02-28T04:37:53;97513.41;;;4.07;100.00
24962;BME280;12992;50.884;13.668;2024-02-28T04:40:18;97507.38;;;4.05;100.00
24962;BME280;12992;50.884;13.668;2024-02-28T04:42:44;97502.63;;;4.00;100.00
24962;BME280;12992;50.884;13.668;2024-02-28T04:45:09;97512.38;;;4.01;100.00
24962;BME280;12992;50.884;13.668;2024-02-28T04:47:36;97506.75;;;3.96;100.00
24962;BME280;12992;50.884;13.668;2024-02-28T04:50:02;97515.69;;;3.90;100.00
24962;BME280;12992;50.884;13.668;2024-02-28T04:52:30;97510.94;;;3.85;100.00
24962;BME280;12992;50.884;13.668;2024-02-28T04:54:55;97515.06;;;3.94;100.00
24962;BME280;12992;50.884;13.668;2024-02-28T04:57:21;97510.50;;;3.95;100.00
24962;BME280;12992;50.884;13.668;2024-02-28T04:59:46;97510.50;;;3.95;100.00
24962;BME280;12992;50.884;13.668;2024-02-28T05:02:12;97517.97;;;3.93;100.00
24962;BME280;12992;50.884;13.668;2024-02-28T05:04:37;97520.44;;;3.94;100.00
24962;BME280;12992;50.884;13.668;2024-02-28T05:07:02;97523.13;;;3.88;100.00
24962;BME280;12992;50.884;13.668;2024-02-28T05:09:29;97519.22;;;3.90;100.00
24962;BME280;12992;50.884;13.668;2024-02-28T05:11:54;97521.91;;;3.84;100.00
24962;BME280;12992;50.884;13.668;2024-02-28T05:14:20;97523.78;;;3.83;100.00
24962;BME280;12992;50.884;13.668;2024-02-28T05:16:47;97523.34;;;3.80;100.00
24962;BME280;12992;50.884;13.668;2024-02-28T05:19:12;97524.00;;;3.82;100.00
24962;BME280;12992;50.884;13.668;2024-02-28T05:21:42;97515.50;;;3.72;100.00
24962;BME280;12992;50.884;13.668;2024-02-28T05:24:07;97519.63;;;3.74;100.00
24962;BME280;12992;50.884;13.668;2024-02-28T05:26:34;97526.69;;;3.82;100.00
24962;BME280;12992;50.884;13.668;2024-02-28T05:29:00;97521.50;;;3.80;100.00
24962;BME280;12992;50.884;13.668;2024-02-28T05:31:26;97529.78;;;3.79;100.00
24962;BME280;12992;50.884;13.668;2024-02-28T05:33:56;97524.59;;;3.77;100.00
24962;BME280;12992;50.884;13.668;2024-02-28T05:36:29;97532.06;;;3.75;100.00
24962;BME280;12992;50.884;13.668;2024-02-28T05:38:56;97527.94;;;3.73;100.00
24962;BME280;12992;50.884;13.668;2024-02-28T05:41:22;97531.25;;;3.75;100.00
24962;BME280;12992;50.884;13.668;2024-02-28T05:43:48;97536.22;;;3.84;100.00
24962;BME280;12992;50.884;13.668;2024-02-28T05:46:14;97541.16;;;3.87;100.00
24962;BME280;12992;50.884;13.668;2024-02-28T05:48:46;97543.25;;;3.92;100.00
24962;BME280;12992;50.884;13.668;2024-02-28T05:51:12;97543.06;;;4.00;100.00
24962;BME280;12992;50.884;13.668;2024-02-28T05:53:38;97548.66;;;3.92;100.00
24962;BME280;12992;50.884;13.668;2024-02-28T05:56:04;97543.69;;;3.89;100.00
24962;BME280;12992;50.884;13.668;2024-02-28T05:58:30;97545.13;;;3.72;100.00
24962;BME280;12992;50.884;13.668;2024-02-28T06:00:55;97556.72;;;3.79;100.00
24962;BME280;12992;50.884;13.668;2024-02-28T06:03:21;97558.56;;;3.78;100.00
24962;BME280;12992;50.884;13.668;2024-02-28T06:05:46;97565.44;;;3.74;100.00
24962;BME280;12992;50.884;13.668;2024-02-28T06:08:12;97569.38;;;3.65;100.00
24962;BME280;12992;50.884;13.668;2024-02-28T06:10:37;97574.31;;;3.68;100.00
24962;BME280;12992;50.884;13.668;2024-02-28T06:13:03;97586.16;;;3.74;100.00
24962;BME280;12992;50.884;13.668;2024-02-28T06:15:28;97580.56;;;3.75;100.00
24962;BME280;12992;50.884;13.668;2024-02-28T06:17:57;97582.63;;;3.73;100.00
24962;BME280;12992;50.884;13.668;2024-02-28T06:20:23;97590.91;;;3.85;100.00
24962;BME280;12992;50.884;13.668;2024-02-28T06:22:48;97583.66;;;3.72;100.00
24962;BME280;12992;50.884;13.668;2024-02-28T06:25:14;97595.88;;;3.75;100.00
24962;BME280;12992;50.884;13.668;2024-02-28T06:27:44;97594.84;;;3.76;100.00
24962;BME280;12992;50.884;13.668;2024-02-28T06:30:10;97597.97;;;3.86;100.00
24962;BME280;12992;50.884;13.668;2024-02-28T06:32:35;97590.94;;;3.72;100.00
24962;BME280;12992;50.884;13.668;2024-02-28T06:35:01;97593.38;;;3.80;100.00
24962;BME280;12992;50.884;13.668;2024-02-28T06:37:26;97595.69;;;3.83;100.00
24962;BME280;12992;50.884;13.668;2024-02-28T06:39:51;97598.38;;;3.83;100.00
24962;BME280;12992;50.884;13.668;2024-02-28T06:42:18;97592.56;;;3.79;100.00
24962;BME280;12992;50.884;13.668;2024-02-28T06:44:43;97596.94;;;3.80;100.00
24962;BME280;12992;50.884;13.668;2024-02-28T06:47:08;97599.41;;;3.88;100.00
24962;BME280;12992;50.884;13.668;2024-02-28T06:49:34;97603.56;;;4.04;100.00
24962;BME280;12992;50.884;13.668;2024-02-28T06:51:59;97606.88;;;4.13;100.00
24962;BME280;12992;50.884;13.668;2024-02-28T06:54:27;97611.88;;;4.09;100.00
24962;BME280;12992;50.884;13.668;2024-02-28T06:56:52;97600.03;;;3.97;100.00
24962;BME280;12992;50.884;13.668;2024-02-28T06:59:17;97600.06;;;3.90;100.00
24962;BME280;12992;50.884;13.668;2024-02-28T07:01:43;97598.56;;;3.88;100.00
24962;BME280;12992;50.884;13.668;2024-02-28T07:04:08;97599.63;;;3.87;100.00
24962;BME280;12992;50.884;13.668;2024-02-28T07:06:33;97611.66;;;3.91;100.00
24962;BME280;12992;50.884;13.668;2024-02-28T07:08:59;97601.28;;;3.88;100.00
24962;BME280;12992;50.884;13.668;2024-02-28T07:11:24;97601.91;;;3.90;100.00
24962;BME280;12992;50.884;13.668;2024-02-28T07:13:49;97609.78;;;3.91;100.00
24962;BME280;12992;50.884;13.668;2024-02-28T07:16:15;97605.63;;;4.02;100.00
24962;BME280;12992;50.884;13.668;2024-02-28T07:18:40;97609.56;;;3.93;100.00
24962;BME280;12992;50.884;13.668;2024-02-28T07:21:05;97614.16;;;3.99;100.00
24962;BME280;12992;50.884;13.668;2024-02-28T07:23:32;97617.47;;;4.01;100.00
24962;BME280;12992;50.884;13.668;2024-02-28T07:25:57;97612.09;;;4.08;100.00
24962;BME280;12992;50.884;13.668;2024-02-28T07:28:22;97618.72;;;4.18;100.00
24962;BME280;12992;50.884;13.668;2024-02-28T07:30:48;97617.44;;;4.14;100.00
24962;BME280;12992;50.884;13.668;2024-02-28T07:33:13;97620.34;;;4.06;100.00
24962;BME280;12992;50.884;13.668;2024-02-28T07:35:48;97623.88;;;4.00;100.00
24962;BME280;12992;50.884;13.668;2024-02-28T07:38:14;97633.00;;;4.12;100.00
24962;BME280;12992;50.884;13.668;2024-02-28T07:40:41;97634.25;;;4.16;100.00
24962;BME280;12992;50.884;13.668;2024-02-28T07:43:06;97632.59;;;4.02;100.00
24962;BME280;12992;50.884;13.668;2024-02-28T07:45:31;97636.13;;;4.03;100.00
24962;BME280;12992;50.884;13.668;2024-02-28T07:47:57;97636.13;;;4.09;100.00
24962;BME280;12992;50.884;13.668;2024-02-28T07:50:22;97640.25;;;4.05;100.00
24962;BME280;12992;50.884;13.668;2024-02-28T07:52:48;97637.75;;;3.97;100.00
24962;BME280;12992;50.884;13.668;2024-02-28T07:55:13;97642.94;;;4.05;100.00
24962;BME280;12992;50.884;13.668;2024-02-28T07:57:38;97647.72;;;4.10;100.00
24962;BME280;12992;50.884;13.668;2024-02-28T08:00:04;97647.94;;;4.08;100.00
24962;BME280;12992;50.884;13.668;2024-02-28T08:02:37;97655.19;;;4.14;100.00
24962;BME280;12992;50.884;13.668;2024-02-28T08:05:04;97650.84;;;4.07;100.00
24962;BME280;12992;50.884;13.668;2024-02-28T08:07:29;97648.13;;;4.13;100.00
24962;BME280;12992;50.884;13.668;2024-02-28T08:09:54;97649.59;;;4.29;100.00
24962;BME280;12992;50.884;13.668;2024-02-28T08:12:20;97650.63;;;4.15;100.00
24962;BME280;12992;50.884;13.668;2024-02-28T08:14:45;97645.25;;;4.08;100.00
24962;BME280;12992;50.884;13.668;2024-02-28T08:17:11;97649.19;;;4.12;100.00
24962;BME280;12992;50.884;13.668;2024-02-28T08:19:38;97653.94;;;4.23;100.00
24962;BME280;12992;50.884;13.668;2024-02-28T08:22:03;97652.50;;;4.21;100.00
24962;BME280;12992;50.884;13.668;2024-02-28T08:24:29;97653.75;;;4.25;100.00
24962;BME280;12992;50.884;13.668;2024-02-28T08:26:54;97651.25;;;4.10;100.00
24962;BME280;12992;50.884;13.668;2024-02-28T08:29:20;97659.97;;;4.12;100.00
24962;BME280;12992;50.884;13.668;2024-02-28T08:31:45;97657.25;;;4.12;100.00
24962;BME280;12992;50.884;13.668;2024-02-28T08:34:11;97659.34;;;4.23;100.00
24962;BME280;12992;50.884;13.668;2024-02-28T08:36:36;97667.41;;;4.23;100.00
24962;BME280;12992;50.884;13.668;2024-02-28T08:39:02;97667.25;;;4.25;100.00
24962;BME280;12992;50.884;13.668;2024-02-28T08:41:30;97663.28;;;4.21;100.00
24962;BME280;12992;50.884;13.668;2024-02-28T08:43:55;97673.03;;;4.29;100.00
24962;BME280;12992;50.884;13.668;2024-02-28T08:46:20;97673.25;;;4.34;100.00
24962;BME280;12992;50.884;13.668;2024-02-28T08:48:46;97676.75;;;4.41;100.00
24962;BME280;12992;50.884;13.668;2024-02-28T08:51:11;97683.38;;;4.32;100.00
24962;BME280;12992;50.884;13.668;2024-02-28T08:53:36;97683.38;;;4.32;100.00
24962;BME280;12992;50.884;13.668;2024-02-28T08:56:02;97688.38;;;4.21;100.00
24962;BME280;12992;50.884;13.668;2024-02-28T08:58:27;97687.53;;;4.14;100.00
24962;BME280;12992;50.884;13.668;2024-02-28T09:00:52;97690.44;;;4.13;100.00
24962;BME280;12992;50.884;13.668;2024-02-28T09:03:19;97703.50;;;4.29;100.00
24962;BME280;12992;50.884;13.668;2024-02-28T09:05:44;97692.94;;;4.21;100.00
24962;BME280;12992;50.884;13.668;2024-02-28T09:08:10;97702.06;;;4.26;100.00
24962;BME280;12992;50.884;13.668;2024-02-28T09:10:35;97694.19;;;4.32;100.00
24962;BME280;12992;50.884;13.668;2024-02-28T09:13:00;97691.91;;;4.29;100.00
24962;BME280;12992;50.884;13.668;2024-02-28T09:15:25;97699.38;;;4.26;100.00
24962;BME280;12992;50.884;13.668;2024-02-28T09:17:51;97697.53;;;4.34;100.00
24962;BME280;12992;50.884;13.668;2024-02-28T09:20:17;97708.91;;;4.36;100.00
24962;BME280;12992;50.884;13.668;2024-02-28T09:22:42;97706.84;;;4.24;100.00
24962;BME280;12992;50.884;13.668;2024-02-28T09:25:08;97704.16;;;4.24;100.00
24962;BME280;12992;50.884;13.668;2024-02-28T09:27:34;97707.84;;;4.23;100.00
24962;BME280;12992;50.884;13.668;2024-02-28T09:30:00;97705.19;;;4.17;100.00
24962;BME280;12992;50.884;13.668;2024-02-28T09:32:26;97713.03;;;4.32;100.00
24962;BME280;12992;50.884;13.668;2024-02-28T09:34:51;97708.28;;;4.40;100.00
24962;BME280;12992;50.884;13.668;2024-02-28T09:37:16;97717.19;;;4.41;100.00
24962;BME280;12992;50.884;13.668;2024-02-28T09:39:47;97713.06;;;4.38;100.00
24962;BME280;12992;50.884;13.668;2024-02-28T09:42:13;97713.69;;;4.47;100.00
24962;BME280;12992;50.884;13.668;2024-02-28T09:44:40;97718.66;;;4.50;100.00
24962;BME280;12992;50.884;13.668;2024-02-28T09:47:05;97719.47;;;4.50;100.00
24962;BME280;12992;50.884;13.668;2024-02-28T09:49:32;97715.97;;;4.63;100.00
24962;BME280;12992;50.884;13.668;2024-02-28T09:51:59;97726.75;;;4.63;100.00
24962;BME280;12992;50.884;13.668;2024-02-28T09:54:25;97728.63;;;4.69;100.00
24962;BME280;12992;50.884;13.668;2024-02-28T09:56:51;97729.03;;;4.73;100.00
24962;BME280;12992;50.884;13.668;2024-02-28T09:59:18;97735.69;;;4.70;100.00
24962;BME280;12992;50.884;13.668;2024-02-28T10:01:45;97744.81;;;4.69;100.00
24962;BME280;12992;50.884;13.668;2024-02-28T10:04:13;97738.59;;;4.62;100.00
24962;BME280;12992;50.884;13.668;2024-02-28T10:06:41;97739.84;;;4.53;100.00
24962;BME280;12992;50.884;13.668;2024-02-28T10:09:07;97742.31;;;4.35;100.00
24962;BME280;12992;50.884;13.668;2024-02-28T10:11:33;97741.69;;;4.52;100.00
24962;BME280;12992;50.884;13.668;2024-02-28T10:14:00;97748.53;;;4.55;100.00
24962;BME280;12992;50.884;13.668;2024-02-28T10:16:26;97749.78;;;4.66;100.00
24962;BME280;12992;50.884;13.668;2024-02-28T10:18:51;97756.03;;;4.60;100.00
24962;BME280;12992;50.884;13.668;2024-02-28T10:21:17;97751.03;;;4.76;100.00
24962;BME280;12992;50.884;13.668;2024-02-28T10:23:44;97754.56;;;4.70;100.00
24962;BME280;12992;50.884;13.668;2024-02-28T10:26:10;97758.72;;;4.73;100.00
24962;BME280;12992;50.884;13.668;2024-02-28T10:28:39;97752.69;;;4.71;100.00
24962;BME280;12992;50.884;13.668;2024-02-28T10:31:07;97757.88;;;4.92;100.00
24962;BME280;12992;50.884;13.668;2024-02-28T10:33:33;97761.41;;;4.93;100.00
24962;BME280;12992;50.884;13.668;2024-02-28T10:36:02;97766.97;;;5.18;100.00
24962;BME280;12992;50.884;13.668;2024-02-28T10:38:28;97770.06;;;5.28;100.00
24962;BME280;12992;50.884;13.668;2024-02-28T10:40:53;97774.63;;;5.27;100.00
24962;BME280;12992;50.884;13.668;2024-02-28T10:43:19;97775.25;;;5.36;100.00
24962;BME280;12992;50.884;13.668;2024-02-28T10:45:45;97760.31;;;5.20;100.00
24962;BME280;12992;50.884;13.668;2024-02-28T10:48:14;97776.28;;;5.42;100.00
24962;BME280;12992;50.884;13.668;2024-02-28T10:50:39;97773.97;;;5.52;100.00
24962;BME280;12992;50.884;13.668;2024-02-28T10:53:12;97782.13;;;5.32;100.00
24962;BME280;12992;50.884;13.668;2024-02-28T10:55:40;97782.75;;;5.21;100.00
24962;BME280;12992;50.884;13.668;2024-02-28T10:58:12;97790.81;;;5.40;100.00
24962;BME280;12992;50.884;13.668;2024-02-28T11:00:42;97781.63;;;5.55;100.00
24962;BME280;12992;50.884;13.668;2024-02-28T11:03:09;97777.09;;;5.49;100.00
24962;BME280;12992;50.884;13.668;2024-02-28T11:05:40;97780.44;;;5.37;100.00
24962;BME280;12992;50.884;13.668;2024-02-28T11:08:24;97787.69;;;5.44;100.00
24962;BME280;12992;50.884;13.668;2024-02-28T11:11:02;97786.88;;;5.36;100.00
24962;BME280;12992;50.884;13.668;2024-02-28T11:13:29;97775.06;;;5.11;100.00
24962;BME280;12992;50.884;13.668;2024-02-28T11:16:07;97778.00;;;5.16;100.00
24962;BME280;12992;50.884;13.668;2024-02-28T11:18:33;97778.00;;;5.23;100.00
24962;BME280;12992;50.884;13.668;2024-02-28T11:20:58;97776.88;;;5.44;100.00
24962;BME280;12992;50.884;13.668;2024-02-28T11:23:23;97776.66;;;5.52;100.00
24962;BME280;12992;50.884;13.668;2024-02-28T11:25:49;97776.59;;;5.65;100.00
24962;BME280;12992;50.884;13.668;2024-02-28T11:28:15;97776.13;;;5.81;100.00
24962;BME280;12992;50.884;13.668;2024-02-28T11:30:40;97776.72;;;6.03;100.00
24962;BME280;12992;50.884;13.668;2024-02-28T11:33:06;97783.84;;;6.29;100.00
24962;BME280;12992;50.884;13.668;2024-02-28T11:35:33;97768.75;;;6.46;100.00
24962;BME280;12992;50.884;13.668;2024-02-28T11:37:59;97776.13;;;6.33;100.00
24962;BME280;12992;50.884;13.668;2024-02-28T11:40:25;97767.94;;;6.46;100.00
24962;BME280;12992;50.884;13.668;2024-02-28T11:42:54;97778.19;;;6.37;100.00
24962;BME280;12992;50.884;13.668;2024-02-28T11:45:19;97775.41;;;6.44;100.00
24962;BME280;12992;50.884;13.668;2024-02-28T11:47:45;97776.69;;;6.10;100.00
24962;BME280;12992;50.884;13.668;2024-02-28T11:50:10;97782.25;;;6.15;100.00
24962;BME280;12992;50.884;13.668;2024-02-28T11:52:35;97778.69;;;6.21;100.00
24962;BME280;12992;50.884;13.668;2024-02-28T11:55:01;97776.72;;;6.35;100.00
24962;BME280;12992;50.884;13.668;2024-02-28T11:57:26;97785.56;;;6.80;100.00
24962;BME280;12992;50.884;13.668;2024-02-28T11:59:51;97775.13;;;6.84;100.00
24962;BME280;12992;50.884;13.668;2024-02-28T12:02:18;97776.94;;;7.15;100.00
24962;BME280;12992;50.884;13.668;2024-02-28T12:04:44;97777.59;;;7.35;100.00
24962;BME280;12992;50.884;13.668;2024-02-28T12:07:10;97776.00;;;7.27;100.00
24962;BME280;12992;50.884;13.668;2024-02-28T12:09:35;97777.66;;;7.65;100.00
24962;BME280;12992;50.884;13.668;2024-02-28T12:12:02;97784.16;;;9.02;100.00
24962;BME280;12992;50.884;13.668;2024-02-28T12:14:31;97769.84;;;9.19;97.53
24962;BME280;12992;50.884;13.668;2024-02-28T12:16:58;97762.28;;;8.97;95.04
24962;BME280;12992;50.884;13.668;2024-02-28T12:19:23;97746.44;;;8.83;93.19
24962;BME280;12992;50.884;13.668;2024-02-28T12:21:49;97745.28;;;8.18;91.82
24962;BME280;12992;50.884;13.668;2024-02-28T12:24:14;97754.28;;;8.01;93.14
24962;BME280;12992;50.884;13.668;2024-02-28T12:26:40;97758.31;;;7.80;95.57
24962;BME280;12992;50.884;13.668;2024-02-28T12:29:06;97761.94;;;8.22;95.76
24962;BME280;12992;50.884;13.668;2024-02-28T12:31:31;97754.72;;;8.99;94.66
24962;BME280;12992;50.884;13.668;2024-02-28T12:33:56;97741.59;;;8.96;90.71
24962;BME280;12992;50.884;13.668;2024-02-28T12:36:22;97740.03;;;8.65;89.31
24962;BME280;12992;50.884;13.668;2024-02-28T12:38:47;97733.53;;;8.24;89.74
24962;BME280;12992;50.884;13.668;2024-02-28T12:41:13;97736.25;;;8.24;91.35
24962;BME280;12992;50.884;13.668;2024-02-28T12:43:39;97744.72;;;7.98;92.28